This is the latest recevied weather packets stored in our database for station/object K7CTM. If no packets are shown the sender has not sent any weather packets the latest 10 day(s).
| Time | Temp. | Humidity | Pressure | Rain* | Wind** | Luminosity | Snow |
|---|---|---|---|---|---|---|---|
| 1777539554 | 2.22° C | 74% | 1032.5 hPa | 0 mm | - | 0 W/m² | - |
| 1777539250 | 2.78° C | 74% | 1032.7 hPa | 0 mm | - | 0 W/m² | - |
| 1777538947 | 2.78° C | 72% | 1032.5 hPa | 0 mm | - | 0 W/m² | - |
| 1777538642 | 2.22° C | 74% | 1032.7 hPa | 0 mm | - | 0 W/m² | - |
| 1777538337 | 1.67° C | 76% | 1032.7 hPa | 0 mm | - | 0 W/m² | - |
| 1777538034 | 2.22° C | 74% | 1032.5 hPa | 0 mm | - | 0 W/m² | - |
| 1777537730 | 2.22° C | 73% | 1032.5 hPa | 0 mm | - | 0 W/m² | - |
| 1777537426 | 1.67° C | 75% | 1032.5 hPa | 0 mm | - | 0 W/m² | - |
| 1777537122 | 2.22° C | 75% | 1032.5 hPa | 0 mm | - | 0 W/m² | - |
| 1777536819 | 2.22° C | 74% | 1032.5 hPa | 0 mm | - | 0 W/m² | - |
| 1777536516 | 2.22° C | 75% | 1032.7 hPa | 0 mm | - | 0 W/m² | - |
| 1777536212 | 2.22° C | 75% | 1032.4 hPa | 0 mm | - | 0 W/m² | - |
| 1777535908 | 2.22° C | 74% | 1032.5 hPa | 0 mm | - | 0 W/m² | - |
| 1777535605 | 2.22° C | 74% | 1032.7 hPa | 0 mm | - | 0 W/m² | - |
| 1777535302 | 2.78° C | 73% | 1032.8 hPa | 0 mm | - | 0 W/m² | - |
| 1777534999 | 2.78° C | 72% | 1032.8 hPa | 0 mm | - | 0 W/m² | - |
| 1777534695 | 3.33° C | 71% | 1032.7 hPa | 0 mm | - | 0 W/m² | - |
| 1777534392 | 3.33° C | 71% | 1032.8 hPa | 0 mm | - | 0 W/m² | - |
| 1777534090 | 3.33° C | 71% | 1032.8 hPa | 0 mm | - | 0 W/m² | - |
| 1777533787 | 3.33° C | 71% | 1032.7 hPa | 0 mm | - | 0 W/m² | - |
| 1777533484 | 3.33° C | 71% | 1032.8 hPa | 0 mm | - | 0 W/m² | - |
| 1777533179 | 3.33° C | 72% | 1032.7 hPa | 0 mm | - | 0 W/m² | - |
| 1777532877 | 2.78° C | 73% | 1032.8 hPa | 0 mm | - | 0 W/m² | - |
| 1777532574 | 3.33° C | 69% | 1032.7 hPa | 0 mm | - | 0 W/m² | - |
| 1777532270 | 3.89° C | 67% | 1032.5 hPa | 0 mm | - | 0 W/m² | - |
* Rain latest hour (hover to see other rain measurements)
** Current wind speed in m/s (hover to see current wind gust speed)